Time;durP1;ratioP1;P1;durP2;ratioP2;P2;SDS_P1;SDS_P2;PMS_P1;PMS_P2;Temp;Humidity;BMP_temperature;BMP_pressure;BME280_temperature;BME280_humidity;BME280_pressure;Samples;Min_cycle;Max_cycle;Signal;HPM_P1;HPM_P2
2022/08/28 14:08:12;;;;;;;9.30;8.10;;;;;;;22.34;100.00;98475.11;2151037;79;21658;-90
2022/08/28 14:11:12;;;;;;;11.75;9.50;;;;;;;22.32;100.00;98484.44;2149375;82;21456;-77
2022/08/28 14:14:13;;;;;;;8.63;7.83;;;;;;;22.30;100.00;98483.87;2160178;81;21002;-80
2022/08/28 14:17:14;;;;;;;8.03;7.17;;;;;;;22.28;100.00;98490.81;2155900;83;21013;-78
2022/08/28 14:20:14;;;;;;;8.13;6.90;;;;;;;22.12;100.00;98495.80;2156232;82;21006;-81
2022/08/28 14:23:15;;;;;;;10.65;7.28;;;;;;;21.96;100.00;98500.23;2156201;83;21065;-81
2022/08/28 14:26:16;;;;;;;7.30;6.58;;;;;;;21.98;100.00;98505.30;2155813;83;20981;-81
2022/08/28 14:29:16;;;;;;;13.80;7.20;;;;;;;22.10;100.00;98509.92;2156377;83;21034;-93
2022/08/28 14:32:17;;;;;;;7.05;6.35;;;;;;;22.20;100.00;98515.30;2156494;83;20986;-92
2022/08/28 14:35:18;;;;;;;7.78;6.35;;;;;;;22.08;100.00;98516.05;2156032;83;21024;-92
2022/08/28 14:38:18;;;;;;;6.97;6.37;;;;;;;21.91;100.00;98520.19;2156320;83;20938;-90
2022/08/28 14:41:19;;;;;;;7.90;7.03;;;;;;;21.77;100.00;98516.38;2156672;83;21020;-89
2022/08/28 14:44:20;;;;;;;6.00;5.50;;;;;;;21.73;100.00;98506.75;2156401;82;21005;-88
2022/08/28 14:47:20;;;;;;;8.80;6.30;;;;;;;21.66;100.00;98506.16;2156036;82;21429;-86
2022/08/28 14:50:21;;;;;;;7.47;5.70;;;;;;;21.64;100.00;98512.28;2156178;82;21576;-88
2022/08/28 14:53:22;;;;;;;7.10;5.90;;;;;;;21.54;100.00;98506.88;2156401;82;21054;-89
2022/08/28 14:56:22;;;;;;;7.33;6.62;;;;;;;21.55;100.00;98492.50;2156424;83;21034;-90
2022/08/28 14:59:23;;;;;;;8.55;7.22;;;;;;;21.56;100.00;98492.77;2156396;83;21045;-91
2022/08/28 15:02:23;;;;;;;7.78;6.97;;;;;;;21.50;100.00;98485.30;2157213;82;21548;-89
2022/08/28 15:05:24;;;;;;;9.20;6.60;;;;;;;21.46;100.00;98476.72;2156222;82;20974;-88
2022/08/28 15:08:25;;;;;;;8.65;7.75;;;;;;;21.45;100.00;98481.25;2156209;82;21058;-90
2022/08/28 15:11:26;;;;;;;8.58;6.90;;;;;;;21.43;100.00;98482.04;2156648;82;21021;-88
2022/08/28 15:14:27;;;;;;;12.23;7.78;;;;;;;21.44;100.00;98490.30;2155169;82;21041;-89
2022/08/28 15:17:27;;;;;;;12.95;8.38;;;;;;;21.49;100.00;98490.35;2155995;83;21512;-89
2022/08/28 15:20:28;;;;;;;7.80;6.17;;;;;;;21.53;100.00;98493.30;2155592;82;21057;-87
2022/08/28 15:23:29;;;;;;;8.13;7.42;;;;;;;21.52;100.00;98487.70;2156289;83;20985;-87
2022/08/28 15:26:30;;;;;;;7.17;6.40;;;;;;;21.50;100.00;98480.50;2155948;83;21092;-86
2022/08/28 15:29:30;;;;;;;6.97;6.47;;;;;;;21.57;100.00;98487.72;2155746;83;20946;-88
2022/08/28 15:32:31;;;;;;;7.70;7.05;;;;;;;21.62;100.00;98485.10;2156103;83;21508;-89
2022/08/28 15:35:33;;;;;;;7.97;7.28;;;;;;;21.62;100.00;98486.97;2155757;83;21109;-87
2022/08/28 15:41:52;;;;;;;8.95;7.58;;;;;;;21.50;100.00;98489.82;2156504;83;21091;-88
2022/08/28 15:44:53;;;;;;;8.65;6.85;;;;;;;21.46;100.00;98486.84;2156395;83;21064;-89
2022/08/28 15:47:54;;;;;;;7.80;7.03;;;;;;;21.42;100.00;98484.97;2156406;83;20993;-86
2022/08/28 15:50:54;;;;;;;12.80;7.08;;;;;;;21.41;100.00;98483.36;2156253;83;20962;-85
2022/08/28 15:53:55;;;;;;;6.78;5.60;;;;;;;21.42;100.00;98483.63;2156139;83;21076;-87
2022/08/28 15:56:56;;;;;;;9.58;6.47;;;;;;;21.45;100.00;98481.25;2156167;83;21013;-85
2022/08/28 15:59:56;;;;;;;7.42;6.53;;;;;;;21.41;100.00;98482.03;2156336;82;21057;-89
2022/08/28 16:02:59;;;;;;;6.85;6.20;;;;;;;21.35;100.00;98485.17;2156343;83;21017;-86
2022/08/28 16:06:00;;;;;;;9.55;6.85;;;;;;;21.29;100.00;98482.19;2156322;82;21057;-87
2022/08/28 16:09:00;;;;;;;8.18;6.05;;;;;;;21.25;100.00;98477.88;2156200;82;20954;-84
2022/08/28 16:12:01;;;;;;;6.72;6.10;;;;;;;21.21;100.00;98477.30;2155754;83;21108;-86
2022/08/28 16:15:02;;;;;;;6.78;6.03;;;;;;;21.16;100.00;98476.73;2156138;83;21574;-87
2022/08/28 16:18:07;;;;;;;5.45;5.05;;;;;;;21.12;100.00;98467.66;2156200;83;20998;-88
2022/08/28 16:21:05;;;;;;;6.75;6.03;;;;;;;21.13;100.00;98468.47;2155898;82;21129;-87
2022/08/28 16:24:06;;;;;;;6.80;6.20;;;;;;;21.14;100.00;98474.86;2156411;82;21556;-88
2022/08/28 16:27:06;;;;;;;7.80;6.00;;;;;;;21.14;100.00;98485.51;2156464;82;21476;-85
2022/08/28 16:30:07;;;;;;;8.68;5.33;;;;;;;21.14;100.00;98485.51;2156450;82;21516;-88
2022/08/28 16:33:08;;;;;;;7.78;6.20;;;;;;;21.11;100.00;98487.86;2156528;82;21013;-85
2022/08/28 16:36:09;;;;;;;7.42;6.75;;;;;;;21.08;100.00;98490.50;2156275;83;21140;-85
2022/08/28 16:39:10;;;;;;;6.20;5.62;;;;;;;21.07;100.00;98494.75;2141752;81;21041;-88
2022/08/28 16:42:11;;;;;;;5.50;4.80;;;;;;;21.06;100.00;98499.80;2139174;83;21033;-89
2022/08/28 16:45:11;;;;;;;5.65;5.15;;;;;;;21.00;100.00;98494.95;2144330;83;21084;-88
2022/08/28 16:48:12;;;;;;;8.40;6.83;;;;;;;21.01;100.00;98501.34;2162119;81;21080;-88
2022/08/28 16:51:13;;;;;;;6.05;5.45;;;;;;;21.00;100.00;98502.41;2157923;81;21017;-87
2022/08/28 16:54:16;;;;;;;5.25;4.78;;;;;;;20.94;100.00;98496.78;2155875;83;21476;-88
2022/08/28 16:57:16;;;;;;;6.45;5.62;;;;;;;20.90;100.00;98503.64;2156000;82;21141;-90
2022/08/28 17:00:20;;;;;;;5.50;5.08;;;;;;;20.90;100.00;98504.97;2156248;83;21966;-86
2022/08/28 17:03:20;;;;;;;5.47;4.90;;;;;;;20.91;100.00;98505.25;2155679;83;21062;-87
2022/08/28 17:06:22;;;;;;;5.53;5.03;;;;;;;20.86;100.00;98511.06;2156101;83;21097;-90
2022/08/28 17:09:23;;;;;;;6.92;6.10;;;;;;;20.85;100.00;98514.78;2155478;83;21054;-89
2022/08/28 17:12:23;;;;;;;5.80;5.30;;;;;;;20.94;100.00;98516.73;2156517;83;21025;-89
2022/08/28 17:15:24;;;;;;;6.30;5.85;;;;;;;21.01;100.00;98520.51;2156840;83;20964;-92
2022/08/28 17:18:25;;;;;;;5.85;5.35;;;;;;;20.99;100.00;98518.63;2157220;83;21044;-88
2022/08/28 17:24:45;;;;;;;6.28;5.78;;;;;;;21.06;100.00;98524.56;2160091;82;21109;-90
2022/08/28 17:27:46;;;;;;;7.10;6.12;;;;;;;20.96;100.00;98523.14;2156992;83;20986;-93
2022/08/28 17:30:47;;;;;;;8.90;6.97;;;;;;;20.87;100.00;98528.10;2156580;82;20966;-87
2022/08/28 17:33:50;;;;;;;7.25;6.55;;;;;;;20.81;100.00;98524.30;2145956;82;21001;-92
2022/08/28 17:36:51;;;;;;;7.42;6.62;;;;;;;20.78;100.00;98529.60;2136571;83;21038;-88
2022/08/28 17:39:52;;;;;;;7.55;6.83;;;;;;;20.70;100.00;98530.05;2137290;83;21488;-93
2022/08/28 17:42:56;;;;;;;9.98;5.83;;;;;;;20.62;100.00;98527.82;2137180;83;21854;-90
2022/08/28 17:45:56;;;;;;;8.63;7.08;;;;;;;20.54;100.00;98529.58;2136862;83;21042;-92
2022/08/28 17:48:57;;;;;;;8.43;6.80;;;;;;;20.46;100.00;98530.81;2137225;83;21449;-93
2022/08/28 17:51:58;;;;;;;7.97;7.10;;;;;;;20.42;100.00;98535.81;2136597;83;20990;-92
2022/08/28 17:54:59;;;;;;;6.90;6.30;;;;;;;20.39;100.00;98540.80;2136955;83;21038;-90
2022/08/28 17:57:59;;;;;;;7.10;6.35;;;;;;;20.34;100.00;98538.09;2136660;83;21021;-90
2022/08/28 18:01:01;;;;;;;6.55;5.95;;;;;;;20.34;100.00;98530.11;2136821;83;21027;-92
2022/08/28 18:04:02;;;;;;;8.00;6.33;;;;;;;20.30;100.00;98535.13;2137428;83;20994;-92
2022/08/28 18:07:03;;;;;;;5.90;5.40;;;;;;;20.26;100.00;98534.00;2137053;83;21035;-91
2022/08/28 18:10:04;;;;;;;13.80;8.13;;;;;;;20.25;100.00;98543.03;2136682;83;21006;-91
2022/08/28 18:13:05;;;;;;;5.72;5.12;;;;;;;20.23;100.00;98545.66;2136725;83;20986;-91
2022/08/28 18:16:05;;;;;;;7.75;6.97;;;;;;;20.20;100.00;98548.80;2137452;83;21144;-94
2022/08/28 18:19:06;;;;;;;7.47;6.50;;;;;;;20.13;100.00;98547.66;2137478;83;20939;-91
2022/08/28 18:22:07;;;;;;;6.90;6.22;;;;;;;20.10;100.00;98552.92;2136770;83;21014;-89
2022/08/28 18:25:08;;;;;;;9.53;6.92;;;;;;;20.14;100.00;98556.72;2136502;83;21040;-89
2022/08/28 18:28:08;;;;;;;7.67;6.97;;;;;;;20.17;100.00;98562.06;2136636;83;20998;-88
2022/08/28 18:31:09;;;;;;;8.70;7.58;;;;;;;20.18;100.00;98554.36;2136850;82;21025;-90
2022/08/28 18:34:12;;;;;;;9.85;8.03;;;;;;;20.13;100.00;98559.09;2136737;83;21017;-89
2022/08/28 18:37:15;;;;;;;9.25;8.35;;;;;;;20.16;100.00;98560.45;2136465;83;21026;-87
2022/08/28 18:40:16;;;;;;;9.80;8.73;;;;;;;20.09;100.00;98558.48;2136956;83;21033;-90
2022/08/28 18:43:19;;;;;;;8.83;7.10;;;;;;;20.02;100.00;98565.29;2136714;83;21013;-90
2022/08/28 18:46:19;;;;;;;9.60;7.50;;;;;;;19.97;100.00;98565.23;2136992;83;21588;-89
2022/08/28 18:49:20;;;;;;;8.90;7.28;;;;;;;20.01;100.00;98562.88;2136932;83;21087;-90
2022/08/28 18:52:20;;;;;;;10.13;7.28;;;;;;;20.02;100.00;98566.63;2137088;83;20999;-89
2022/08/28 18:55:21;;;;;;;8.50;7.70;;;;;;;20.00;100.00;98567.39;2137014;83;20997;-90
2022/08/28 18:58:22;;;;;;;8.05;7.10;;;;;;;20.01;100.00;98574.31;2136962;83;20950;-90
2022/08/28 19:01:23;;;;;;;7.42;6.72;;;;;;;19.94;100.00;98570.25;2136654;83;21049;-89
2022/08/28 19:04:24;;;;;;;7.10;6.42;;;;;;;19.93;100.00;98577.91;2140709;81;21483;-89
2022/08/28 19:07:25;;;;;;;7.75;7.05;;;;;;;19.89;100.00;98579.73;2154664;81;20962;-90
2022/08/28 19:10:26;;;;;;;9.70;8.08;;;;;;;19.88;100.00;98577.32;2134906;82;21045;-86
2022/08/28 19:13:27;;;;;;;7.75;7.05;;;;;;;19.91;100.00;98572.84;2151693;82;21012;-87
2022/08/28 19:16:30;;;;;;;7.40;6.70;;;;;;;19.91;100.00;98570.19;2148887;83;20931;-88
2022/08/28 19:19:30;;;;;;;7.90;7.20;;;;;;;19.93;100.00;98571.27;2155201;81;21066;-87
2022/08/28 19:22:31;;;;;;;11.20;9.08;;;;;;;19.91;100.00;98569.38;2154466;82;21009;-87
2022/08/28 19:25:32;;;;;;;9.60;8.45;;;;;;;19.91;100.00;98572.04;2165271;82;21052;-87
2022/08/28 19:28:32;;;;;;;9.03;8.13;;;;;;;19.89;100.00;98576.27;2137250;82;20977;-86
2022/08/28 19:31:33;;;;;;;8.55;7.75;;;;;;;19.87;100.00;98567.75;2151241;81;21573;-86
2022/08/28 19:34:34;;;;;;;7.85;7.15;;;;;;;19.84;100.00;98569.05;2130846;83;20962;-86
2022/08/28 19:37:34;;;;;;;7.92;7.12;;;;;;;19.86;100.00;98572.78;2152527;82;21080;-87
2022/08/28 19:40:37;;;;;;;7.45;6.75;;;;;;;19.86;100.00;98566.14;2161183;82;21428;-87
2022/08/28 19:43:38;;;;;;;7.10;6.50;;;;;;;19.86;100.00;98561.63;2141059;83;21550;-86
2022/08/28 19:46:38;;;;;;;12.75;8.35;;;;;;;19.86;100.00;98561.63;2151985;83;21024;-86
2022/08/28 19:49:39;;;;;;;10.98;9.68;;;;;;;19.85;100.00;98567.19;2146874;83;20953;-86
2022/08/28 19:52:40;;;;;;;9.73;8.10;;;;;;;19.86;100.00;98570.92;2140842;83;21490;-86
2022/08/28 19:55:41;;;;;;;11.10;8.05;;;;;;;19.87;100.00;98565.89;2156337;82;20938;-86
2022/08/28 19:58:41;;;;;;;9.68;8.18;;;;;;;19.82;100.00;98569.78;2135372;83;20968;-86
2022/08/28 20:01:44;;;;;;;10.43;6.95;;;;;;;19.79;100.00;98571.61;2142855;83;21021;-86
2022/08/28 20:04:44;;;;;;;10.30;7.42;;;;;;;19.76;100.00;98576.09;2148909;83;21569;-86
2022/08/28 20:07:45;;;;;;;8.20;7.40;;;;;;;19.72;100.00;98572.81;2149929;83;20993;-86
2022/08/28 20:10:46;;;;;;;8.08;6.87;;;;;;;19.73;100.00;98580.53;2150649;83;21037;-86
2022/08/28 20:13:51;;;;;;;7.78;6.97;;;;;;;19.73;100.00;98579.20;2138036;83;20957;-86
2022/08/28 20:16:55;;;;;;;9.83;8.28;;;;;;;19.70;100.00;98577.57;2140072;83;21488;-86
2022/08/28 20:19:59;;;;;;;9.35;8.43;;;;;;;19.70;100.00;98581.55;2148329;83;22109;-85
2022/08/28 20:23:05;;;;;;;9.33;8.23;;;;;;;19.66;100.00;98573.28;2145107;83;21053;-85
2022/08/28 20:26:14;;;;;;;12.18;8.40;;;;;;;19.66;100.00;98581.73;2142788;83;21547;-85
2022/08/28 20:29:09;;;;;;;10.82;8.63;;;;;;;19.67;100.00;98578.86;2139016;83;22236;-85
2022/08/28 20:32:10;;;;;;;9.23;8.33;;;;;;;19.66;100.00;98589.21;2147238;83;21021;-86
2022/08/28 20:35:11;;;;;;;10.75;8.30;;;;;;;19.65;100.00;98586.77;2147133;83;20996;-86
2022/08/28 20:38:12;;;;;;;9.33;7.45;;;;;;;19.63;100.00;98589.67;2147219;83;21016;-86
2022/08/28 20:41:13;;;;;;;8.70;7.85;;;;;;;19.58;100.00;98586.42;2147673;83;21448;-86
2022/08/28 20:44:14;;;;;;;10.55;8.55;;;;;;;19.56;100.00;98587.16;2147132;83;21041;-86
2022/08/28 20:47:15;;;;;;;10.38;9.23;;;;;;;19.54;100.00;98591.08;2147198;83;21562;-86
2022/08/28 20:50:15;;;;;;;10.65;8.55;;;;;;;19.51;100.00;98588.92;2147258;83;20988;-87
2022/08/28 20:53:16;;;;;;;8.08;7.37;;;;;;;19.50;100.00;98589.44;2147244;83;21009;-86
2022/08/28 20:56:17;;;;;;;9.55;7.80;;;;;;;19.50;100.00;98588.11;2147224;83;20993;-87
2022/08/28 20:59:18;;;;;;;8.90;8.03;;;;;;;19.48;100.00;98594.72;2147204;83;20965;-87
2022/08/28 21:02:18;;;;;;;13.20;8.30;;;;;;;19.43;100.00;98597.27;2147024;83;20969;-87
2022/08/28 21:05:19;;;;;;;12.37;8.85;;;;;;;19.39;100.00;98594.30;2147077;83;21016;-87
2022/08/28 21:08:20;;;;;;;8.28;7.47;;;;;;;19.36;100.00;98592.11;2146948;83;21013;-87
2022/08/28 21:11:21;;;;;;;8.75;7.90;;;;;;;19.34;100.00;98587.56;2146808;83;20973;-87
2022/08/28 21:14:21;;;;;;;15.80;9.43;;;;;;;19.31;100.00;98590.70;2147007;83;21012;-87
2022/08/28 21:17:22;;;;;;;10.78;8.35;;;;;;;19.28;100.00;98588.51;2147125;83;20965;-87
2022/08/28 21:20:23;;;;;;;11.80;8.83;;;;;;;19.27;100.00;98583.72;2146816;83;21297;-86
2022/08/28 21:23:24;;;;;;;12.60;9.70;;;;;;;19.30;100.00;98588.58;2147021;83;20953;-88
2022/08/28 21:26:24;;;;;;;11.93;9.50;;;;;;;19.34;100.00;98587.56;2146927;83;20942;-88
2022/08/28 21:29:25;;;;;;;13.58;10.85;;;;;;;19.37;100.00;98587.08;2147197;83;21052;-87
2022/08/28 21:32:26;;;;;;;12.15;10.70;;;;;;;19.42;100.00;98589.03;2149789;83;20997;-87
2022/08/28 21:35:27;;;;;;;11.95;10.72;;;;;;;19.46;100.00;98591.47;2147012;83;20962;-87
2022/08/28 21:38:28;;;;;;;13.85;12.05;;;;;;;19.49;100.00;98591.81;2147022;83;21064;-88
2022/08/28 21:41:29;;;;;;;15.60;12.78;;;;;;;19.55;100.00;98590.03;2147174;83;21072;-87
2022/08/28 21:44:30;;;;;;;11.65;10.48;;;;;;;19.59;100.00;98594.67;2147123;83;21032;-87
2022/08/28 21:47:30;;;;;;;15.15;12.15;;;;;;;19.68;100.00;98593.75;2147375;83;21511;-87
2022/08/28 21:50:31;;;;;;;11.88;10.53;;;;;;;19.73;100.00;98598.33;2147629;83;21023;-87
2022/08/28 21:53:32;;;;;;;14.78;13.05;;;;;;;19.75;100.00;98594.90;2147153;83;21064;-87
2022/08/28 21:56:33;;;;;;;15.58;13.50;;;;;;;19.82;100.00;98599.53;2147044;83;20965;-87
2022/08/28 21:59:33;;;;;;;18.87;12.33;;;;;;;19.83;100.00;98599.28;2147277;83;20938;-87
2022/08/28 22:02:34;;;;;;;15.25;12.85;;;;;;;19.86;100.00;98605.98;2147031;83;20973;-86
2022/08/28 22:05:35;;;;;;;16.82;13.45;;;;;;;19.87;100.00;98601.76;2147151;83;21031;-86
2022/08/28 22:08:36;;;;;;;14.18;11.00;;;;;;;19.88;100.00;98604.69;2147101;83;21044;-87
2022/08/28 22:11:36;;;;;;;14.90;12.50;;;;;;;19.88;100.00;98605.22;2147161;83;21020;-87
2022/08/28 22:14:37;;;;;;;13.65;12.18;;;;;;;19.92;100.00;98606.86;2147697;83;21016;-87
2022/08/28 22:17:38;;;;;;;15.80;12.50;;;;;;;19.95;100.00;98607.20;2147068;83;21032;-87
2022/08/28 22:23:58;;;;;;;14.35;12.63;;;;;;;20.04;100.00;98604.41;2147191;83;21084;-87
2022/08/28 22:26:58;;;;;;;15.58;12.82;;;;;;;20.07;100.00;98617.20;2147321;83;21024;-87
2022/08/28 22:29:59;;;;;;;13.38;11.97;;;;;;;20.05;100.00;98615.84;2147101;83;21037;-87
2022/08/28 22:33:00;;;;;;;14.40;12.47;;;;;;;20.05;100.00;98616.64;2147183;83;21553;-87
2022/08/28 22:36:01;;;;;;;15.78;12.88;;;;;;;20.06;100.00;98614.27;2147192;83;21032;-87
2022/08/28 22:39:02;;;;;;;15.35;13.70;;;;;;;20.06;100.00;98620.11;2147073;83;20981;-87
2022/08/28 22:42:03;;;;;;;15.53;13.98;;;;;;;20.03;100.00;98616.09;2147244;83;20997;-87
2022/08/28 22:45:04;;;;;;;18.20;15.40;;;;;;;20.06;100.00;98622.77;2147022;83;21016;-87
2022/08/28 22:48:04;;;;;;;14.35;12.18;;;;;;;20.09;100.00;98625.73;2147171;83;20942;-87
2022/08/28 22:51:05;;;;;;;17.23;12.75;;;;;;;20.12;100.00;98624.46;2147173;83;21079;-87
2022/08/28 22:54:06;;;;;;;15.63;12.95;;;;;;;20.12;100.00;98625.27;2146874;83;21048;-87
2022/08/28 22:57:07;;;;;;;14.93;12.88;;;;;;;20.15;100.00;98629.28;2147033;83;21021;-86
2022/08/28 23:00:08;;;;;;;12.98;11.68;;;;;;;20.18;100.00;98624.27;2147128;83;20976;-87
2022/08/28 23:03:09;;;;;;;18.17;11.40;;;;;;;20.23;100.00;98626.21;2147041;83;21492;-87
2022/08/28 23:06:09;;;;;;;12.98;11.63;;;;;;;20.29;100.00;98628.41;2147273;83;21032;-87
2022/08/28 23:09:10;;;;;;;14.05;12.30;;;;;;;20.31;100.00;98621.81;2147188;83;20961;-87
2022/08/28 23:12:11;;;;;;;14.58;11.25;;;;;;;20.36;100.00;98633.03;2147133;83;21000;-86
2022/08/28 23:15:13;;;;;;;14.75;12.05;;;;;;;20.38;100.00;98629.59;2147231;83;21496;-86
2022/08/28 23:18:14;;;;;;;11.88;10.68;;;;;;;20.43;100.00;98623.86;2147063;83;21076;-87
2022/08/28 23:21:14;;;;;;;14.05;10.78;;;;;;;20.46;100.00;98622.56;2147287;83;20973;-86
2022/08/28 23:24:17;;;;;;;12.65;10.65;;;;;;;20.42;100.00;98620.09;2147277;83;21420;-87
2022/08/28 23:27:18;;;;;;;12.07;10.82;;;;;;;20.36;100.00;98619.73;2147099;83;21077;-87
2022/08/28 23:30:18;;;;;;;13.80;11.85;;;;;;;20.34;100.00;98614.66;2147591;83;21001;-87
2022/08/28 23:33:20;;;;;;;14.07;10.35;;;;;;;20.37;100.00;98615.50;2147455;83;21060;-86
2022/08/28 23:36:21;;;;;;;12.68;11.38;;;;;;;20.36;100.00;98612.56;2147325;83;21065;-87
2022/08/28 23:39:21;;;;;;;13.53;12.13;;;;;;;20.36;100.00;98617.88;2147373;83;21025;-87
2022/08/28 23:42:22;;;;;;;13.70;12.20;;;;;;;20.34;100.00;98619.98;2147340;83;20965;-86
2022/08/28 23:45:23;;;;;;;12.95;11.55;;;;;;;20.32;100.00;98616.77;2147353;83;20977;-87
2022/08/28 23:48:23;;;;;;;13.03;11.83;;;;;;;20.31;100.00;98620.48;2147344;83;21004;-87
2022/08/28 23:51:24;;;;;;;15.23;12.23;;;;;;;20.30;100.00;98620.70;2147313;83;20997;-87
2022/08/28 23:54:25;;;;;;;17.35;12.13;;;;;;;20.29;100.00;98621.23;2147144;83;21107;-86
2022/08/28 23:57:26;;;;;;;13.22;11.15;;;;;;;20.27;100.00;98615.36;2147258;83;21539;-87
